CDT,Max TemperatureF,Mean TemperatureF,Min TemperatureF,Max Dew PointF,MeanDew PointF,Min DewpointF,Max Humidity, Mean Humidity, Min Humidity, Max Sea Level PressureIn, Mean Sea Level PressureIn, Min Sea Level PressureIn, Max VisibilityMiles, Mean VisibilityMiles, Min VisibilityMiles, Max Wind SpeedMPH, Mean Wind SpeedMPH, Max Gust SpeedMPH,PrecipitationIn, CloudCover, Events, WindDirDegrees
2012-9-1,89,81,73,75,73,70,100,81,55,30.19,30.13,30.08,10,8,1,10,5,21,0.00,3,,195
2012-9-2,89,81,73,75,73,68,94,78,58,30.12,30.05,29.98,10,10,4,10,5,17,0.00,4,,221
2012-9-3,89,82,75,77,75,73,94,81,62,30.05,29.99,29.93,10,9,5,10,5,,0.00,3,,225
2012-9-4,91,82,73,77,74,72,94,83,59,29.97,29.92,29.86,10,10,6,13,5,17,0.00,2,Thunderstorm,233
2012-9-5,91,81,71,75,74,70,100,82,59,29.93,29.88,29.86,10,8,0,10,4,16,0.00,3,,51
2012-9-6,89,81,73,77,73,72,94,80,58,29.98,29.93,29.89,10,8,3,9,2,,0.00,1,,69
2012-9-7,89,81,73,75,72,68,94,78,49,29.98,29.92,29.84,10,8,1,9,2,,0.00,1,,139
2012-9-8,89,79,69,75,71,64,100,81,59,29.98,29.89,29.85,10,9,0,21,3,26,0.00,2,,330
2012-9-9,82,71,60,64,57,54,88,66,37,30.09,30.03,29.96,10,10,10,13,7,17,0.00,0,,358
2012-9-10,84,70,55,64,57,54,94,68,35,30.15,30.10,30.06,10,10,7,12,3,,0.00,0,,37
2012-9-11,84,72,59,64,59,55,88,68,37,30.20,30.14,30.09,10,10,9,9,2,,0.00,1,,81
2012-9-12,87,74,62,72,65,57,88,75,55,30.20,30.15,30.10,10,10,10,13,4,20,0.00,1,,97
2012-9-13,87,76,66,70,65,61,88,71,43,30.21,30.16,30.11,10,10,8,10,3,,0.00,1,,69
2012-9-14,87,76,66,66,64,61,94,71,40,30.21,30.16,30.12,10,10,9,10,4,,0.00,1,,48
2012-9-15,87,76,64,70,64,61,94,71,43,30.17,30.12,30.07,10,10,9,10,5,,0.00,0,,38
2012-9-16,87,79,71,72,69,66,94,77,49,30.09,30.03,29.96,10,10,10,14,3,18,0.00,2,,121
2012-9-17,75,72,69,72,70,66,100,92,88,29.98,29.85,29.74,10,8,0,10,3,,0.66,6,,129
2012-9-18,80,71,62,66,65,61,94,79,61,30.04,29.88,29.75,10,9,3,16,6,23,0.26,4,,321
2012-9-19,77,66,55,59,53,48,94,68,38,30.14,30.08,30.04,10,10,10,12,5,,0.00,0,,6
2012-9-20,80,66,53,64,56,52,94,71,42,30.13,30.08,30.03,10,10,10,7,1,,0.00,0,,348
2012-9-21,84,70,57,66,61,55,94,73,45,30.09,30.04,29.99,10,10,6,6,1,,0.00,1,,76
2012-9-22,89,76,62,72,65,61,94,76,43,30.12,30.07,30.02,10,8,2,8,1,,0.00,0,,305
2012-9-23,89,76,62,72,65,59,94,74,43,30.20,30.15,30.12,10,9,1,8,2,,0.00,0,,10
2012-9-24,82,71,60,64,58,52,88,66,42,30.22,30.17,30.12,10,10,10,8,5,,0.00,0,,45
2012-9-25,82,70,59,66,60,55,94,72,51,30.16,30.13,30.08,10,10,9,9,2,,0.00,0,,125
2012-9-26,84,70,57,68,62,55,94,76,48,30.17,30.12,30.08,10,10,6,9,2,,0.00,1,,124
2012-9-27,86,74,62,72,65,61,100,77,43,30.19,30.13,30.06,10,8,0,8,2,,0.00,1,,86
2012-9-28,87,76,64,70,66,61,94,76,43,30.12,30.06,30.00,10,9,2,7,1,,0.00,0,,80
2012-9-29,75,70,66,72,68,63,94,90,83,30.03,29.97,29.90,10,8,2,10,1,,2.03,2,,86
2012-9-30,77,72,66,73,69,64,100,92,83,29.89,29.73,29.56,10,8,2,17,6,23,0.52,7,,126